The World — C6RW4 — position and weather

sailwx.info

Track history (hours):
 
Tides and Currents Weather Stations Pressure Air Temp Water Temp Dewpoint Dewpoint Depression Visibility Wind Speed Wind Dir Waves Ship Positions

The World

Operator: Bergshav-Norway

Last reported at 2017-Jul-19 02:09 UTC. Time now 2017-Jul-21 02:33 UTC.
Position N 52°30' W 128°27'.

Length 196 m; draft 7.1 m.

Type: Passenger vessel. MMSI: 311213000.

Date/timePositionNaut miles runAvg speedWind from/ knotsBaromVisibWave heightAir tempDewpointWater temp
2017-Jul-19 02:09N 52°30' W 128°27'214.5
2017-Jul-19 01:59N 52°28' W 128°27'714.1
2017-Jul-19 01:30N 52°21' W 128°31'612.8
2017-Jul-19 01:00N 52°16' W 128°26'812.5
2017-Jul-19 00:21N 52°14' W 128°13'411.5
2017-Jul-18 23:58N 52°12' W 128°06'4 9.3
2017-Jul-18 23:30N 52°08' W 128°08'810.4
2017-Jul-18 22:45N 52°04' W 127°56'311.3
2017-Jul-18 22:30N 52°01' W 127°55'612.8
2017-Jul-18 22:00N 51°55' W 127°56'612.8
2017-Jul-18 21:30N 51°49' W 127°56'612.6
2017-Jul-18 21:00N 51°42' W 127°55'612.3
2017-Jul-18 20:30N 51°36' W 127°53'612.2
2017-Jul-18 19:59N 51°30' W 127°51'612.5
2017-Jul-18 19:29N 51°24' W 127°51'612.3
2017-Jul-18 18:59N 51°18' W 127°53'612.1
2017-Jul-18 18:30N 51°12' W 127°53'611.1
2017-Jul-18 18:00N 51°07' W 127°58'611.2
2017-Jul-18 17:30N 51°07' W 128°07'511.1
2017-Jul-18 17:00N 51°05' W 128°15'510.6
2017-Jul-18 16:30N 51°05' W 128°24'510.9
2017-Jul-18 16:00N 51°05' W 128°32'611.2
2017-Jul-18 15:30N 51°06' W 128°41'510.9
2017-Jul-18 15:00N 51°06' W 128°50'1110.7
2017-Jul-18 14:00N 51°08' W 129°07'4 8.2
2017-Jul-18 13:30N 51°08' W 129°13'4 7.7
2017-Jul-18 12:56N 51°10' W 129°19'4 7.9
2017-Jul-18 12:27N 51°13' W 129°23'3 7.6
2017-Jul-18 12:00N 51°17' W 129°25'4 7.7
2017-Jul-18 11:30N 51°17' W 129°19'4 8.3
2017-Jul-18 11:00N 51°15' W 129°12'4 8.0
2017-Jul-18 10:30N 51°14' W 129°06'4 8.1
2017-Jul-18 10:00N 51°13' W 129°00'4 7.8
2017-Jul-18 09:30N 51°12' W 128°54'4 8.1
2017-Jul-18 09:00N 51°11' W 128°48'4 8.0
2017-Jul-18 08:30N 51°09' W 128°42'4 8.1
2017-Jul-18 08:00N 51°08' W 128°36'4 8.0
2017-Jul-18 07:30N 51°07' W 128°30'4 8.0
2017-Jul-18 07:00N 51°06' W 128°24'4 8.4
2017-Jul-18 06:30N 51°05' W 128°17'5 9.6
2017-Jul-18 06:00N 51°04' W 128°10'714.0
2017-Jul-18 05:30N 51°02' W 127°59'713.6
2017-Jul-18 05:00N 50°59' W 127°49'612.8
2017-Jul-18 04:30N 50°56' W 127°41'612.6
2017-Jul-18 04:00N 50°52' W 127°33'613.0
2017-Jul-18 03:30N 50°48' W 127°24'712.6
2017-Jul-18 02:58N 50°43' W 127°17'612.9
2017-Jul-18 02:29N 50°38' W 127°11'710.9
2017-Jul-18 01:52N 50°36' W 127°01'4 9.6
2017-Jul-18 01:29N 50°34' W 126°56'612.2
2017-Jul-18 00:58N 50°33' W 126°46'713.4
2017-Jul-18 00:28N 50°31' W 126°36'1013.6
2017-Jul-17 23:41N 50°30' W 126°19'312.8
2017-Jul-17 23:29N 50°29' W 126°15'3312.7
2017-Jul-17 20:54N 50°20' W 125°26'512.0
2017-Jul-17 20:29N 50°15' W 125°23'613.0
2017-Jul-17 20:00N 50°09' W 125°21'510.0
2017-Jul-17 19:30N 50°06' W 125°17'3 5.7
2017-Jul-17 19:00N 50°03' W 125°14'3 5.2
2017-Jul-17 18:30N 50°01' W 125°13'3 5.8
2017-Jul-17 18:00N 49°59' W 125°10'4 8.1
2017-Jul-17 17:30N 49°59' W 125°03'4 7.5
2017-Jul-17 17:00N 50°00' W 124°58'4 7.1
2017-Jul-17 16:30N 49°60' W 124°52'4 7.5
2017-Jul-17 16:00N 49°58' W 124°47'3 7.0
2017-Jul-17 15:30N 49°56' W 124°43'4 7.6
2017-Jul-17 15:00N 49°53' W 124°38'4 7.3
2017-Jul-17 14:30N 49°51' W 124°35'4 7.5
2017-Jul-17 14:00N 49°47' W 124°33'4 7.1
2017-Jul-17 13:30N 49°46' W 124°28'4 7.3
2017-Jul-17 13:00N 49°44' W 124°23'4 7.6
2017-Jul-17 12:30N 49°42' W 124°18'4 7.8
2017-Jul-17 11:59N 49°39' W 124°14'4 7.5
2017-Jul-17 11:30N 49°36' W 124°10'4 7.3
2017-Jul-17 11:00N 49°33' W 124°06'4 7.3
2017-Jul-17 10:30N 49°30' W 124°05'3 6.9
2017-Jul-17 10:00N 49°27' W 124°01'4 7.5
2017-Jul-17 09:30N 49°26' W 123°56'4 7.5
2017-Jul-17 09:00N 49°25' W 123°51'4 7.5
2017-Jul-17 08:25N 49°23' W 123°44'3 7.5
2017-Jul-17 08:00N 49°22' W 123°40'4 7.4
2017-Jul-17 07:30N 49°21' W 123°34'4 7.5
2017-Jul-17 07:00N 49°20' W 123°29'4 7.3
2017-Jul-17 06:30N 49°19' W 123°23'4 7.1
2017-Jul-17 06:00N 49°19' W 123°18'4 7.1
2017-Jul-17 05:30N 49°19' W 123°12'4 8.6
2017-Jul-17 05:00N 49°18' W 123°06'1 1.1
2017-Jul-17 04:30N 49°17' W 123°06'0 0.0
2017-Jul-17 04:00N 49°17' W 123°06'0 0.0
2017-Jul-17 03:30N 49°17' W 123°06'0 0.0
2017-Jul-17 03:00N 49°17' W 123°06'0 0.0
2017-Jul-17 02:30N 49°17' W 123°06'0 0.0
2017-Jul-17 02:00N 49°17' W 123°06'0 0.0
2017-Jul-17 01:30N 49°17' W 123°06'0 0.0
2017-Jul-17 01:00N 49°17' W 123°06'0 0.0
2017-Jul-17 00:30N 49°17' W 123°06'0 0.0
2017-Jul-17 00:00N 49°17' W 123°06'0 0.0
2017-Jul-16 23:30N 49°17' W 123°06'0 0.0
2017-Jul-16 23:00N 49°17' W 123°06'0 0.0
2017-Jul-16 22:30N 49°17' W 123°06'0 0.0
2017-Jul-16 22:00N 49°17' W 123°06'0 0.0
2017-Jul-16 21:30N 49°17' W 123°06'0 0.0
2017-Jul-16 21:00N 49°17' W 123°06'0 0.0
2017-Jul-16 20:30N 49°17' W 123°06'0 0.0
2017-Jul-16 20:00N 49°17' W 123°06'0 0.0
2017-Jul-16 19:30N 49°17' W 123°06'0 0.0
2017-Jul-16 19:00N 49°17' W 123°06'0 0.0
2017-Jul-16 18:30N 49°17' W 123°06'0 0.0
2017-Jul-16 18:00N 49°17' W 123°06'0 0.0
2017-Jul-16 17:30N 49°17' W 123°06'0 0.0
2017-Jul-16 17:00N 49°17' W 123°06'0 0.0
2017-Jul-16 16:30N 49°17' W 123°06'0 0.0
2017-Jul-16 16:00N 49°17' W 123°06'0 0.0
2017-Jul-16 15:30N 49°17' W 123°06'0 0.0
2017-Jul-16 15:00N 49°17' W 123°06'0 0.0
2017-Jul-16 14:30N 49°17' W 123°06'0 0.1
2017-Jul-16 14:00N 49°17' W 123°06'2 4.9
2017-Jul-16 13:30N 49°19' W 123°09'4 7.3
2017-Jul-16 13:00N 49°18' W 123°15'4 7.9
2017-Jul-16 12:30N 49°15' W 123°19'5 9.3
2017-Jul-16 12:00N 49°11' W 123°20'5 9.2
2017-Jul-16 11:30N 49°06' W 123°21'4 8.2
2017-Jul-16 11:00N 49°02' W 123°18'4 8.9
2017-Jul-16 10:30N 48°59' W 123°13'4 8.7
2017-Jul-16 09:59N 48°56' W 123°08'4 8.0
2017-Jul-16 09:30N 48°53' W 123°04'4 8.3
2017-Jul-16 08:59N 48°50' W 122°60'510.4
2017-Jul-16 08:30N 48°46' W 123°03'612.2
2017-Jul-16 08:00N 48°43' W 123°12'713.8
2017-Jul-16 07:30N 48°47' W 123°20'3 0.2
2017-Jul-15 13:49N 48°49' W 123°24'3 9.6
2017-Jul-15 13:30N 48°47' W 123°20'5 9.7
2017-Jul-15 13:00N 48°44' W 123°15'611.5
2017-Jul-15 12:30N 48°45' W 123°06'5 9.8
2017-Jul-15 12:00N 48°48' W 123°01'510.4
2017-Jul-15 11:30N 48°52' W 123°06'510.6
2017-Jul-15 11:00N 48°56' W 123°12'510.1
2017-Jul-15 10:30N 48°59' W 123°18'510.1
2017-Jul-15 10:00N 49°02' W 123°24'510.2
2017-Jul-15 09:28N 49°06' W 123°30'510.1
2017-Jul-15 09:00N 49°09' W 123°35'510.2
2017-Jul-15 08:30N 49°12' W 123°42'610.1
2017-Jul-15 07:57N 49°14' W 123°49'3 7.6
2017-Jul-15 07:31N 49°12' W 123°54'2 0.2
2017-Jul-14 17:39N 49°10' W 123°55'0 0.0
2017-Jul-14 17:25N 49°10' W 123°55'0 0.0
2017-Jul-14 16:04N 49°10' W 123°55'0 0.0
2017-Jul-14 15:41N 49°10' W 123°55'0 0.0
2017-Jul-14 15:23N 49°10' W 123°55'0 0.0
2017-Jul-14 14:53N 49°10' W 123°55'0 0.0
2017-Jul-14 14:22N 49°10' W 123°55'0 0.0
2017-Jul-14 13:17N 49°10' W 123°55'0 0.0
2017-Jul-14 12:58N 49°10' W 123°55'0 0.0
2017-Jul-14 12:21N 49°10' W 123°55'0 0.0
2017-Jul-14 11:53N 49°10' W 123°55'0 0.0
2017-Jul-14 11:29N 49°10' W 123°55'1 0.0
2017-Jul-13 14:03N 49°10' W 123°55'0 6.8
2017-Jul-13 13:58N 49°10' W 123°54'4 6.6
2017-Jul-13 13:23N 49°14' W 123°52'2 6.5
2017-Jul-13 13:00N 49°15' W 123°49'3 5.8
2017-Jul-13 12:29N 49°18' W 123°52'4 8.1
2017-Jul-13 11:59N 49°20' W 123°57'2 5.1
2017-Jul-13 11:30N 49°22' W 123°55'4 7.2
2017-Jul-13 11:00N 49°24' W 123°50'3 6.9
2017-Jul-13 10:30N 49°23' W 123°44'4 7.8
2017-Jul-13 10:00N 49°21' W 123°40'4 7.6
2017-Jul-13 09:30N 49°19' W 123°35'4 7.8
2017-Jul-13 09:00N 49°17' W 123°30'4 7.7
2017-Jul-13 08:30N 49°18' W 123°24'4 8.1
2017-Jul-13 08:00N 49°19' W 123°18'4 8.0
2017-Jul-13 07:30N 49°19' W 123°12'4 8.3
2017-Jul-13 07:00N 49°17' W 123°06'0 0.4
2017-Jul-13 06:30N 49°17' W 123°06'0 0.0
2017-Jul-13 06:00N 49°17' W 123°06'0 0.0
2017-Jul-13 05:27N 49°17' W 123°06'0 0.0
2017-Jul-13 04:57N 49°17' W 123°06'0 0.0
2017-Jul-13 04:30N 49°17' W 123°06'0 0.0
2017-Jul-13 04:00N 49°17' W 123°06'0 0.0
2017-Jul-13 03:30N 49°17' W 123°06'0 0.0
2017-Jul-13 03:00N 49°17' W 123°06'0 0.0
2017-Jul-13 02:30N 49°17' W 123°06'0 0.0
2017-Jul-13 02:00N 49°17' W 123°06'0 0.0
2017-Jul-13 01:30N 49°17' W 123°06'0 0.0
2017-Jul-13 01:00N 49°17' W 123°06'0 0.0
2017-Jul-13 00:30N 49°17' W 123°06'0 0.0
2017-Jul-13 00:00N 49°17' W 123°06'0 0.0
2017-Jul-12 23:30N 49°17' W 123°06'0 0.0
2017-Jul-12 23:00N 49°17' W 123°06'0 0.0
2017-Jul-12 22:30N 49°17' W 123°06'0 0.0
2017-Jul-12 22:00N 49°17' W 123°06'0 0.0
2017-Jul-12 21:30N 49°17' W 123°06'0 0.0
2017-Jul-12 21:00N 49°17' W 123°06'0 0.0
2017-Jul-12 20:30N 49°17' W 123°06'0 0.0
2017-Jul-12 20:00N 49°17' W 123°06'0 0.0
2017-Jul-12 19:30N 49°17' W 123°06'0 0.0
2017-Jul-12 19:00N 49°17' W 123°06'0 0.0
2017-Jul-12 18:30N 49°17' W 123°06'0 0.0
2017-Jul-12 18:00N 49°17' W 123°06'0 0.0
2017-Jul-12 17:29N 49°17' W 123°06'0 0.0
2017-Jul-12 16:58N 49°17' W 123°06'0 0.0
2017-Jul-12 16:28N 49°17' W 123°06'0 0.0
2017-Jul-12 15:58N 49°17' W 123°06'0 0.0
2017-Jul-12 15:28N 49°17' W 123°06'0 0.0
2017-Jul-12 14:58N 49°17' W 123°06'0 0.0
2017-Jul-12 13:58N 49°17' W 123°06'0 0.0
2017-Jul-12 13:28N 49°17' W 123°06'0 0.0
2017-Jul-12 12:58N 49°17' W 123°06'0 0.0
2017-Jul-12 12:28N 49°17' W 123°06'0 0.0
2017-Jul-12 11:58N 49°17' W 123°06'0 0.0
2017-Jul-12 11:28N 49°17' W 123°06'0 0.0
2017-Jul-12 10:58N 49°17' W 123°06'0 0.0
2017-Jul-12 10:28N 49°17' W 123°06'0 0.0
2017-Jul-12 09:58N 49°17' W 123°06'0 0.0
2017-Jul-12 09:28N 49°17' W 123°06'0 0.0
2017-Jul-12 08:58N 49°17' W 123°06'0 0.0
2017-Jul-12 08:28N 49°17' W 123°06'0 0.0
2017-Jul-12 07:58N 49°17' W 123°06'0 0.0
2017-Jul-12 07:28N 49°17' W 123°06'0 0.0
2017-Jul-12 06:58N 49°17' W 123°06'0 0.0
2017-Jul-12 06:28N 49°17' W 123°06'0 0.0
2017-Jul-12 05:58N 49°17' W 123°06'0 0.1
2017-Jul-12 05:28N 49°17' W 123°06'0 0.0
2017-Jul-12 04:58N 49°17' W 123°06'0 0.0
2017-Jul-12 04:28N 49°17' W 123°06'0 0.0
2017-Jul-12 03:58N 49°17' W 123°06'0 0.0
2017-Jul-12 03:28N 49°17' W 123°06'0 0.0
2017-Jul-12 02:58N 49°17' W 123°06'0 0.0
2017-Jul-12 02:28N 49°17' W 123°06'0 0.0
2017-Jul-12 01:58N 49°17' W 123°06'0 0.0
2017-Jul-12 01:28N 49°17' W 123°06'0 0.0
2017-Jul-12 00:58N 49°17' W 123°06'0 0.0
2017-Jul-12 00:28N 49°17' W 123°06'0 0.0
2017-Jul-11 23:58N 49°17' W 123°06'0 0.0
2017-Jul-11 23:28N 49°17' W 123°06'0 0.0
2017-Jul-11 22:58N 49°17' W 123°06'0 0.0
2017-Jul-11 22:28N 49°17' W 123°06'0 0.0
2017-Jul-11 21:58N 49°17' W 123°06'0 0.0
2017-Jul-11 21:28N 49°17' W 123°06'0 0.0
2017-Jul-11 20:58N 49°17' W 123°06'0 0.0
2017-Jul-11 20:28N 49°17' W 123°06'0 0.0
2017-Jul-11 19:58N 49°17' W 123°06'0 0.0
2017-Jul-11 19:28N 49°17' W 123°06'0 0.0
2017-Jul-11 18:58N 49°17' W 123°06'0 0.0
2017-Jul-11 18:28N 49°17' W 123°06'0 0.0
2017-Jul-11 17:58N 49°17' W 123°06'0 0.0
2017-Jul-11 17:28N 49°17' W 123°06'0 0.0
2017-Jul-11 16:58N 49°17' W 123°06'0 0.0
2017-Jul-11 16:28N 49°17' W 123°06'0 0.0
2017-Jul-11 15:58N 49°17' W 123°06'0 0.0
2017-Jul-11 15:28N 49°17' W 123°06'0 0.0
2017-Jul-11 14:58N 49°17' W 123°06'0 0.0
2017-Jul-11 14:28N 49°17' W 123°06'0 0.0
2017-Jul-11 13:55N 49°17' W 123°06'0 0.0
2017-Jul-11 13:28N 49°17' W 123°06'0 0.0
2017-Jul-11 12:58N 49°17' W 123°06'0 0.0
2017-Jul-11 12:28N 49°17' W 123°06'0 0.0
2017-Jul-11 11:58N 49°17' W 123°06'0 0.0
2017-Jul-11 11:28N 49°17' W 123°06'0 0.0
2017-Jul-11 10:58N 49°17' W 123°06'0 0.0
2017-Jul-11 10:22N 49°17' W 123°06'0 0.0
2017-Jul-11 09:58N 49°17' W 123°06'0 0.0
2017-Jul-11 09:28N 49°17' W 123°06'0 0.0
2017-Jul-11 08:58N 49°17' W 123°06'0 0.0
2017-Jul-11 08:28N 49°17' W 123°06'0 0.0
2017-Jul-11 07:58N 49°17' W 123°06'0 0.0
2017-Jul-11 07:28N 49°17' W 123°06'0 0.0
2017-Jul-11 06:58N 49°17' W 123°06'0 0.0
2017-Jul-11 06:28N 49°17' W 123°06'0 0.0
2017-Jul-11 05:58N 49°17' W 123°06'0 0.0
2017-Jul-11 05:28N 49°17' W 123°06'0 0.0
2017-Jul-11 04:58N 49°17' W 123°06'0 0.0
2017-Jul-11 04:28N 49°17' W 123°06'0 0.0
2017-Jul-11 03:58N 49°17' W 123°06'0 0.0
2017-Jul-11 03:28N 49°17' W 123°06'0 0.0
2017-Jul-11 02:58N 49°17' W 123°06'0 0.0
2017-Jul-11 02:28N 49°17' W 123°06'0 0.0
2017-Jul-11 01:58N 49°17' W 123°06'0 0.0
2017-Jul-11 01:28N 49°17' W 123°06'0 0.0
2017-Jul-11 00:58N 49°17' W 123°06'0 0.0
2017-Jul-11 00:28N 49°17' W 123°06'0 0.0
2017-Jul-10 23:58N 49°17' W 123°06'0 0.0
2017-Jul-10 23:28N 49°17' W 123°06'0 0.0
2017-Jul-10 22:58N 49°17' W 123°06'0 0.0
2017-Jul-10 22:28N 49°17' W 123°06'0 0.0
2017-Jul-10 21:58N 49°17' W 123°06'0 0.0
2017-Jul-10 21:28N 49°17' W 123°06'0 0.0
2017-Jul-10 20:58N 49°17' W 123°06'0 0.0
2017-Jul-10 20:28N 49°17' W 123°06'0 0.0
2017-Jul-10 19:58N 49°17' W 123°06'0 0.0
2017-Jul-10 19:28N 49°17' W 123°06'0 0.0
2017-Jul-10 18:58N 49°17' W 123°06'0 0.0
2017-Jul-10 18:28N 49°17' W 123°06'0 0.0
2017-Jul-10 17:58N 49°17' W 123°06'0 0.0
2017-Jul-10 17:28N 49°17' W 123°06'0 0.0
2017-Jul-10 16:58N 49°17' W 123°06'0 0.0
2017-Jul-10 16:28N 49°17' W 123°06'0 0.0
2017-Jul-10 15:58N 49°17' W 123°06'0 0.0
2017-Jul-10 15:28N 49°17' W 123°06'0 0.0
2017-Jul-10 14:58N 49°17' W 123°06'0 0.0
2017-Jul-10 14:28N 49°17' W 123°06'0 0.0
2017-Jul-10 13:58N 49°17' W 123°06'0 0.0
2017-Jul-10 13:28N 49°17' W 123°06'0 0.0
2017-Jul-10 12:58N 49°17' W 123°06'0 0.0
2017-Jul-10 12:28N 49°17' W 123°06'0 0.0
2017-Jul-10 11:58N 49°17' W 123°06'0 0.0
2017-Jul-10 11:28N 49°17' W 123°06'0 0.0
2017-Jul-10 10:58N 49°17' W 123°06'0 0.0
2017-Jul-10 10:28N 49°17' W 123°06'0 0.0
2017-Jul-10 09:58N 49°17' W 123°06'0 0.0
2017-Jul-10 09:28N 49°17' W 123°06'0 0.0
2017-Jul-10 08:58N 49°17' W 123°06'0 0.0
2017-Jul-10 08:28N 49°17' W 123°06'0 0.0
2017-Jul-10 07:58N 49°17' W 123°06'0 0.0
2017-Jul-10 07:28N 49°17' W 123°06'0 0.0
2017-Jul-10 06:58N 49°17' W 123°06'0 0.0
2017-Jul-10 06:28N 49°17' W 123°06'0 0.0
2017-Jul-10 05:58N 49°17' W 123°06'0 0.0
2017-Jul-10 05:28N 49°17' W 123°06'0 0.0
2017-Jul-10 04:58N 49°17' W 123°06'0 0.0
2017-Jul-10 04:28N 49°17' W 123°06'0 0.0
2017-Jul-10 03:58N 49°17' W 123°06'0 0.0
2017-Jul-10 03:28N 49°17' W 123°06'0 0.0
2017-Jul-10 02:58N 49°17' W 123°06'0 0.0
2017-Jul-10 02:28N 49°17' W 123°06'0 0.0
2017-Jul-10 01:58N 49°17' W 123°06'0 0.2
2017-Jul-10 01:30N 49°17' W 123°06'1 1.8
2017-Jul-10 01:00N 49°18' W 123°05'0 0.1
2017-Jul-10 00:30N 49°18' W 123°05'0 0.1
2017-Jul-10 00:00N 49°18' W 123°05'0 0.0
2017-Jul-09 23:30N 49°18' W 123°05'0 0.0
2017-Jul-09 23:00N 49°18' W 123°05'0 0.0
2017-Jul-09 22:30N 49°18' W 123°05'0 0.0
2017-Jul-09 22:00N 49°18' W 123°05'0 0.0
2017-Jul-09 21:30N 49°18' W 123°05'0 0.0
2017-Jul-09 21:00N 49°18' W 123°05'0 0.0
2017-Jul-09 20:30N 49°18' W 123°05'0 0.0
2017-Jul-09 20:00N 49°18' W 123°05'0 0.1
2017-Jul-09 19:30N 49°18' W 123°05'0 0.1
2017-Jul-09 19:00N 49°18' W 123°05'0 0.0
2017-Jul-09 18:30N 49°18' W 123°05'0 0.0
2017-Jul-09 18:00N 49°18' W 123°05'0 0.1
2017-Jul-09 17:30N 49°18' W 123°05'0 0.0
2017-Jul-09 17:00N 49°18' W 123°05'0 0.0
2017-Jul-09 16:30N 49°18' W 123°05'0 0.0
2017-Jul-09 16:00N 49°18' W 123°05'0 0.0
2017-Jul-09 15:30N 49°18' W 123°05'0 0.0
2017-Jul-09 15:00N 49°18' W 123°05'0 0.0
2017-Jul-09 14:30N 49°18' W 123°05'0 0.0
2017-Jul-09 14:00N 49°18' W 123°05'0 0.0
2017-Jul-09 13:30N 49°18' W 123°05'0 0.0
2017-Jul-09 13:00N 49°18' W 123°05'0 0.0
2017-Jul-09 12:30N 49°18' W 123°05'1 1.7
2017-Jul-09 11:58N 49°17' W 123°06'0 0.0
2017-Jul-09 11:04N 49°17' W 123°06'0 0.0
2017-Jul-09 10:31N 49°17' W 123°06'0 0.0
2017-Jul-09 10:28N 49°17' W 123°06'0 0.0
2017-Jul-09 09:58N 49°17' W 123°06'0 0.0
2017-Jul-09 09:28N 49°17' W 123°06'0 0.0
2017-Jul-09 08:58N 49°17' W 123°06'0 0.0
2017-Jul-09 08:22N 49°17' W 123°06'0 0.0
2017-Jul-09 07:58N 49°17' W 123°06'0 0.0
2017-Jul-09 07:28N 49°17' W 123°06'0 0.0
2017-Jul-09 06:58N 49°17' W 123°06'0 0.0
2017-Jul-09 06:28N 49°17' W 123°06'0 0.0
2017-Jul-09 05:58N 49°17' W 123°06'0 0.0
2017-Jul-09 05:25N 49°17' W 123°06'0 0.0
2017-Jul-09 04:52N 49°17' W 123°06'0 0.0
2017-Jul-09 04:28N 49°17' W 123°06'0 0.0
2017-Jul-09 03:58N 49°17' W 123°06'0 0.0
2017-Jul-09 03:28N 49°17' W 123°06'0 0.0
2017-Jul-09 02:58N 49°17' W 123°06'0 0.0
2017-Jul-09 02:22N 49°17' W 123°06'  
Track history (hours):
 
Tides and Currents Weather Stations Pressure Air Temp Water Temp Dewpoint Dewpoint Depression Visibility Wind Speed Wind Dir Waves Ship Positions

The World

Operator: Bergshav-Norway

Last reported at 2017-Jul-19 02:09 UTC. Time now 2017-Jul-21 02:33 UTC.
Position N 52°30' W 128°27'.

Length 196 m; draft 7.1 m.

Type: Passenger vessel. MMSI: 311213000.

Date/timePositionNaut miles runAvg speedWind from/ knotsBaromVisibWave heightAir tempDewpointWater temp
2017-Jul-19 02:09N 52°30' W 128°27'214.5
2017-Jul-19 01:59N 52°28' W 128°27'714.1
2017-Jul-19 01:30N 52°21' W 128°31'612.8
2017-Jul-19 01:00N 52°16' W 128°26'812.5
2017-Jul-19 00:21N 52°14' W 128°13'411.5
2017-Jul-18 23:58N 52°12' W 128°06'4 9.3
2017-Jul-18 23:30N 52°08' W 128°08'810.4
2017-Jul-18 22:45N 52°04' W 127°56'311.3
2017-Jul-18 22:30N 52°01' W 127°55'612.8
2017-Jul-18 22:00N 51°55' W 127°56'612.8
2017-Jul-18 21:30N 51°49' W 127°56'612.6
2017-Jul-18 21:00N 51°42' W 127°55'612.3
2017-Jul-18 20:30N 51°36' W 127°53'612.2
2017-Jul-18 19:59N 51°30' W 127°51'612.5
2017-Jul-18 19:29N 51°24' W 127°51'612.3
2017-Jul-18 18:59N 51°18' W 127°53'612.1
2017-Jul-18 18:30N 51°12' W 127°53'611.1
2017-Jul-18 18:00N 51°07' W 127°58'611.2
2017-Jul-18 17:30N 51°07' W 128°07'511.1
2017-Jul-18 17:00N 51°05' W 128°15'510.6
2017-Jul-18 16:30N 51°05' W 128°24'510.9
2017-Jul-18 16:00N 51°05' W 128°32'611.2
2017-Jul-18 15:30N 51°06' W 128°41'510.9
2017-Jul-18 15:00N 51°06' W 128°50'1110.7
2017-Jul-18 14:00N 51°08' W 129°07'4 8.2
2017-Jul-18 13:30N 51°08' W 129°13'4 7.7
2017-Jul-18 12:56N 51°10' W 129°19'4 7.9
2017-Jul-18 12:27N 51°13' W 129°23'3 7.6
2017-Jul-18 12:00N 51°17' W 129°25'4 7.7
2017-Jul-18 11:30N 51°17' W 129°19'4 8.3
2017-Jul-18 11:00N 51°15' W 129°12'4 8.0
2017-Jul-18 10:30N 51°14' W 129°06'4 8.1
2017-Jul-18 10:00N 51°13' W 129°00'4 7.8
2017-Jul-18 09:30N 51°12' W 128°54'4 8.1
2017-Jul-18 09:00N 51°11' W 128°48'4 8.0
2017-Jul-18 08:30N 51°09' W 128°42'4 8.1
2017-Jul-18 08:00N 51°08' W 128°36'4 8.0
2017-Jul-18 07:30N 51°07' W 128°30'4 8.0
2017-Jul-18 07:00N 51°06' W 128°24'4 8.4
2017-Jul-18 06:30N 51°05' W 128°17'5 9.6
2017-Jul-18 06:00N 51°04' W 128°10'714.0
2017-Jul-18 05:30N 51°02' W 127°59'713.6
2017-Jul-18 05:00N 50°59' W 127°49'612.8
2017-Jul-18 04:30N 50°56' W 127°41'612.6
2017-Jul-18 04:00N 50°52' W 127°33'613.0
2017-Jul-18 03:30N 50°48' W 127°24'712.6
2017-Jul-18 02:58N 50°43' W 127°17'612.9
2017-Jul-18 02:29N 50°38' W 127°11'710.9
2017-Jul-18 01:52N 50°36' W 127°01'4 9.6
2017-Jul-18 01:29N 50°34' W 126°56'612.2
2017-Jul-18 00:58N 50°33' W 126°46'713.4
2017-Jul-18 00:28N 50°31' W 126°36'1013.6
2017-Jul-17 23:41N 50°30' W 126°19'312.8
2017-Jul-17 23:29N 50°29' W 126°15'3312.7
2017-Jul-17 20:54N 50°20' W 125°26'512.0
2017-Jul-17 20:29N 50°15' W 125°23'613.0
2017-Jul-17 20:00N 50°09' W 125°21'510.0
2017-Jul-17 19:30N 50°06' W 125°17'3 5.7
2017-Jul-17 19:00N 50°03' W 125°14'3 5.2
2017-Jul-17 18:30N 50°01' W 125°13'3 5.8
2017-Jul-17 18:00N 49°59' W 125°10'4 8.1
2017-Jul-17 17:30N 49°59' W 125°03'4 7.5
2017-Jul-17 17:00N 50°00' W 124°58'4 7.1
2017-Jul-17 16:30N 49°60' W 124°52'4 7.5
2017-Jul-17 16:00N 49°58' W 124°47'3 7.0
2017-Jul-17 15:30N 49°56' W 124°43'4 7.6
2017-Jul-17 15:00N 49°53' W 124°38'4 7.3
2017-Jul-17 14:30N 49°51' W 124°35'4 7.5
2017-Jul-17 14:00N 49°47' W 124°33'4 7.1
2017-Jul-17 13:30N 49°46' W 124°28'4 7.3
2017-Jul-17 13:00N 49°44' W 124°23'4 7.6
2017-Jul-17 12:30N 49°42' W 124°18'4 7.8
2017-Jul-17 11:59N 49°39' W 124°14'4 7.5
2017-Jul-17 11:30N 49°36' W 124°10'4 7.3
2017-Jul-17 11:00N 49°33' W 124°06'4 7.3
2017-Jul-17 10:30N 49°30' W 124°05'3 6.9
2017-Jul-17 10:00N 49°27' W 124°01'4 7.5
2017-Jul-17 09:30N 49°26' W 123°56'4 7.5
2017-Jul-17 09:00N 49°25' W 123°51'4 7.5
2017-Jul-17 08:25N 49°23' W 123°44'3 7.5
2017-Jul-17 08:00N 49°22' W 123°40'4 7.4
2017-Jul-17 07:30N 49°21' W 123°34'4 7.5
2017-Jul-17 07:00N 49°20' W 123°29'4 7.3
2017-Jul-17 06:30N 49°19' W 123°23'4 7.1
2017-Jul-17 06:00N 49°19' W 123°18'4 7.1
2017-Jul-17 05:30N 49°19' W 123°12'4 8.6
2017-Jul-17 05:00N 49°18' W 123°06'1 1.1
2017-Jul-17 04:30N 49°17' W 123°06'0 0.0
2017-Jul-17 04:00N 49°17' W 123°06'0 0.0
2017-Jul-17 03:30N 49°17' W 123°06'0 0.0
2017-Jul-17 03:00N 49°17' W 123°06'0 0.0
2017-Jul-17 02:30N 49°17' W 123°06'0 0.0
2017-Jul-17 02:00N 49°17' W 123°06'0 0.0
2017-Jul-17 01:30N 49°17' W 123°06'0 0.0
2017-Jul-17 01:00N 49°17' W 123°06'0 0.0
2017-Jul-17 00:30N 49°17' W 123°06'0 0.0
2017-Jul-17 00:00N 49°17' W 123°06'0 0.0
2017-Jul-16 23:30N 49°17' W 123°06'0 0.0
2017-Jul-16 23:00N 49°17' W 123°06'0 0.0
2017-Jul-16 22:30N 49°17' W 123°06'0 0.0
2017-Jul-16 22:00N 49°17' W 123°06'0 0.0
2017-Jul-16 21:30N 49°17' W 123°06'0 0.0
2017-Jul-16 21:00N 49°17' W 123°06'0 0.0
2017-Jul-16 20:30N 49°17' W 123°06'0 0.0
2017-Jul-16 20:00N 49°17' W 123°06'0 0.0
2017-Jul-16 19:30N 49°17' W 123°06'0 0.0
2017-Jul-16 19:00N 49°17' W 123°06'0 0.0
2017-Jul-16 18:30N 49°17' W 123°06'0 0.0
2017-Jul-16 18:00N 49°17' W 123°06'0 0.0
2017-Jul-16 17:30N 49°17' W 123°06'0 0.0
2017-Jul-16 17:00N 49°17' W 123°06'0 0.0
2017-Jul-16 16:30N 49°17' W 123°06'0 0.0
2017-Jul-16 16:00N 49°17' W 123°06'0 0.0
2017-Jul-16 15:30N 49°17' W 123°06'0 0.0
2017-Jul-16 15:00N 49°17' W 123°06'0 0.0
2017-Jul-16 14:30N 49°17' W 123°06'0 0.1
2017-Jul-16 14:00N 49°17' W 123°06'2 4.9
2017-Jul-16 13:30N 49°19' W 123°09'4 7.3
2017-Jul-16 13:00N 49°18' W 123°15'4 7.9
2017-Jul-16 12:30N 49°15' W 123°19'5 9.3
2017-Jul-16 12:00N 49°11' W 123°20'5 9.2
2017-Jul-16 11:30N 49°06' W 123°21'4 8.2
2017-Jul-16 11:00N 49°02' W 123°18'4 8.9
2017-Jul-16 10:30N 48°59' W 123°13'4 8.7
2017-Jul-16 09:59N 48°56' W 123°08'4 8.0
2017-Jul-16 09:30N 48°53' W 123°04'4 8.3
2017-Jul-16 08:59N 48°50' W 122°60'510.4
2017-Jul-16 08:30N 48°46' W 123°03'612.2
2017-Jul-16 08:00N 48°43' W 123°12'713.8
2017-Jul-16 07:30N 48°47' W 123°20'3 0.2
2017-Jul-15 13:49N 48°49' W 123°24'3 9.6
2017-Jul-15 13:30N 48°47' W 123°20'5 9.7
2017-Jul-15 13:00N 48°44' W 123°15'611.5
2017-Jul-15 12:30N 48°45' W 123°06'5 9.8
2017-Jul-15 12:00N 48°48' W 123°01'510.4
2017-Jul-15 11:30N 48°52' W 123°06'510.6
2017-Jul-15 11:00N 48°56' W 123°12'510.1
2017-Jul-15 10:30N 48°59' W 123°18'510.1
2017-Jul-15 10:00N 49°02' W 123°24'510.2
2017-Jul-15 09:28N 49°06' W 123°30'510.1
2017-Jul-15 09:00N 49°09' W 123°35'510.2
2017-Jul-15 08:30N 49°12' W 123°42'610.1
2017-Jul-15 07:57N 49°14' W 123°49'3 7.6
2017-Jul-15 07:31N 49°12' W 123°54'2 0.2
2017-Jul-14 17:39N 49°10' W 123°55'0 0.0
2017-Jul-14 17:25N 49°10' W 123°55'0 0.0
2017-Jul-14 16:04N 49°10' W 123°55'0 0.0
2017-Jul-14 15:41N 49°10' W 123°55'0 0.0
2017-Jul-14 15:23N 49°10' W 123°55'0 0.0
2017-Jul-14 14:53N 49°10' W 123°55'0 0.0
2017-Jul-14 14:22N 49°10' W 123°55'0 0.0
2017-Jul-14 13:17N 49°10' W 123°55'0 0.0
2017-Jul-14 12:58N 49°10' W 123°55'0 0.0
2017-Jul-14 12:21N 49°10' W 123°55'0 0.0
2017-Jul-14 11:53N 49°10' W 123°55'0 0.0
2017-Jul-14 11:29N 49°10' W 123°55'1 0.0
2017-Jul-13 14:03N 49°10' W 123°55'0 6.8
2017-Jul-13 13:58N 49°10' W 123°54'4 6.6
2017-Jul-13 13:23N 49°14' W 123°52'2 6.5
2017-Jul-13 13:00N 49°15' W 123°49'3 5.8
2017-Jul-13 12:29N 49°18' W 123°52'4 8.1
2017-Jul-13 11:59N 49°20' W 123°57'2 5.1
2017-Jul-13 11:30N 49°22' W 123°55'4 7.2
2017-Jul-13 11:00N 49°24' W 123°50'3 6.9
2017-Jul-13 10:30N 49°23' W 123°44'4 7.8
2017-Jul-13 10:00N 49°21' W 123°40'4 7.6
2017-Jul-13 09:30N 49°19' W 123°35'4 7.8
2017-Jul-13 09:00N 49°17' W 123°30'4 7.7
2017-Jul-13 08:30N 49°18' W 123°24'4 8.1
2017-Jul-13 08:00N 49°19' W 123°18'4 8.0
2017-Jul-13 07:30N 49°19' W 123°12'4 8.3
2017-Jul-13 07:00N 49°17' W 123°06'0 0.4
2017-Jul-13 06:30N 49°17' W 123°06'0 0.0
2017-Jul-13 06:00N 49°17' W 123°06'0 0.0
2017-Jul-13 05:27N 49°17' W 123°06'0 0.0
2017-Jul-13 04:57N 49°17' W 123°06'0 0.0
2017-Jul-13 04:30N 49°17' W 123°06'0 0.0
2017-Jul-13 04:00N 49°17' W 123°06'0 0.0
2017-Jul-13 03:30N 49°17' W 123°06'0 0.0
2017-Jul-13 03:00N 49°17' W 123°06'0 0.0
2017-Jul-13 02:30N 49°17' W 123°06'0 0.0
2017-Jul-13 02:00N 49°17' W 123°06'0 0.0
2017-Jul-13 01:30N 49°17' W 123°06'0 0.0
2017-Jul-13 01:00N 49°17' W 123°06'0 0.0
2017-Jul-13 00:30N 49°17' W 123°06'0 0.0
2017-Jul-13 00:00N 49°17' W 123°06'0 0.0
2017-Jul-12 23:30N 49°17' W 123°06'0 0.0
2017-Jul-12 23:00N 49°17' W 123°06'0 0.0
2017-Jul-12 22:30N 49°17' W 123°06'0 0.0
2017-Jul-12 22:00N 49°17' W 123°06'0 0.0
2017-Jul-12 21:30N 49°17' W 123°06'0 0.0
2017-Jul-12 21:00N 49°17' W 123°06'0 0.0
2017-Jul-12 20:30N 49°17' W 123°06'0 0.0
2017-Jul-12 20:00N 49°17' W 123°06'0 0.0
2017-Jul-12 19:30N 49°17' W 123°06'0 0.0
2017-Jul-12 19:00N 49°17' W 123°06'0 0.0
2017-Jul-12 18:30N 49°17' W 123°06'0 0.0
2017-Jul-12 18:00N 49°17' W 123°06'0 0.0
2017-Jul-12 17:29N 49°17' W 123°06'0 0.0
2017-Jul-12 16:58N 49°17' W 123°06'0 0.0
2017-Jul-12 16:28N 49°17' W 123°06'0 0.0
2017-Jul-12 15:58N 49°17' W 123°06'0 0.0
2017-Jul-12 15:28N 49°17' W 123°06'0 0.0
2017-Jul-12 14:58N 49°17' W 123°06'0 0.0
2017-Jul-12 13:58N 49°17' W 123°06'0 0.0
2017-Jul-12 13:28N 49°17' W 123°06'0 0.0
2017-Jul-12 12:58N 49°17' W 123°06'0 0.0
2017-Jul-12 12:28N 49°17' W 123°06'0 0.0
2017-Jul-12 11:58N 49°17' W 123°06'0 0.0
2017-Jul-12 11:28N 49°17' W 123°06'0 0.0
2017-Jul-12 10:58N 49°17' W 123°06'0 0.0
2017-Jul-12 10:28N 49°17' W 123°06'0 0.0
2017-Jul-12 09:58N 49°17' W 123°06'0 0.0
2017-Jul-12 09:28N 49°17' W 123°06'0 0.0
2017-Jul-12 08:58N 49°17' W 123°06'0 0.0
2017-Jul-12 08:28N 49°17' W 123°06'0 0.0
2017-Jul-12 07:58N 49°17' W 123°06'0 0.0
2017-Jul-12 07:28N 49°17' W 123°06'0 0.0
2017-Jul-12 06:58N 49°17' W 123°06'0 0.0
2017-Jul-12 06:28N 49°17' W 123°06'0 0.0
2017-Jul-12 05:58N 49°17' W 123°06'0 0.1
2017-Jul-12 05:28N 49°17' W 123°06'0 0.0
2017-Jul-12 04:58N 49°17' W 123°06'0 0.0
2017-Jul-12 04:28N 49°17' W 123°06'0 0.0
2017-Jul-12 03:58N 49°17' W 123°06'0 0.0
2017-Jul-12 03:28N 49°17' W 123°06'0 0.0
2017-Jul-12 02:58N 49°17' W 123°06'0 0.0
2017-Jul-12 02:28N 49°17' W 123°06'0 0.0
2017-Jul-12 01:58N 49°17' W 123°06'0 0.0
2017-Jul-12 01:28N 49°17' W 123°06'0 0.0
2017-Jul-12 00:58N 49°17' W 123°06'0 0.0
2017-Jul-12 00:28N 49°17' W 123°06'0 0.0
2017-Jul-11 23:58N 49°17' W 123°06'0 0.0
2017-Jul-11 23:28N 49°17' W 123°06'0 0.0
2017-Jul-11 22:58N 49°17' W 123°06'0 0.0
2017-Jul-11 22:28N 49°17' W 123°06'0 0.0
2017-Jul-11 21:58N 49°17' W 123°06'0 0.0
2017-Jul-11 21:28N 49°17' W 123°06'0 0.0
2017-Jul-11 20:58N 49°17' W 123°06'0 0.0
2017-Jul-11 20:28N 49°17' W 123°06'0 0.0
2017-Jul-11 19:58N 49°17' W 123°06'0 0.0
2017-Jul-11 19:28N 49°17' W 123°06'0 0.0
2017-Jul-11 18:58N 49°17' W 123°06'0 0.0
2017-Jul-11 18:28N 49°17' W 123°06'0 0.0
2017-Jul-11 17:58N 49°17' W 123°06'0 0.0
2017-Jul-11 17:28N 49°17' W 123°06'0 0.0
2017-Jul-11 16:58N 49°17' W 123°06'0 0.0
2017-Jul-11 16:28N 49°17' W 123°06'0 0.0
2017-Jul-11 15:58N 49°17' W 123°06'0 0.0
2017-Jul-11 15:28N 49°17' W 123°06'0 0.0
2017-Jul-11 14:58N 49°17' W 123°06'0 0.0
2017-Jul-11 14:28N 49°17' W 123°06'0 0.0
2017-Jul-11 13:55N 49°17' W 123°06'0 0.0
2017-Jul-11 13:28N 49°17' W 123°06'0 0.0
2017-Jul-11 12:58N 49°17' W 123°06'0 0.0
2017-Jul-11 12:28N 49°17' W 123°06'0 0.0
2017-Jul-11 11:58N 49°17' W 123°06'0 0.0
2017-Jul-11 11:28N 49°17' W 123°06'0 0.0
2017-Jul-11 10:58N 49°17' W 123°06'0 0.0
2017-Jul-11 10:22N 49°17' W 123°06'0 0.0
2017-Jul-11 09:58N 49°17' W 123°06'0 0.0
2017-Jul-11 09:28N 49°17' W 123°06'0 0.0
2017-Jul-11 08:58N 49°17' W 123°06'0 0.0
2017-Jul-11 08:28N 49°17' W 123°06'0 0.0
2017-Jul-11 07:58N 49°17' W 123°06'0 0.0
2017-Jul-11 07:28N 49°17' W 123°06'0 0.0
2017-Jul-11 06:58N 49°17' W 123°06'0 0.0
2017-Jul-11 06:28N 49°17' W 123°06'0 0.0
2017-Jul-11 05:58N 49°17' W 123°06'0 0.0
2017-Jul-11 05:28N 49°17' W 123°06'0 0.0
2017-Jul-11 04:58N 49°17' W 123°06'0 0.0
2017-Jul-11 04:28N 49°17' W 123°06'0 0.0
2017-Jul-11 03:58N 49°17' W 123°06'0 0.0
2017-Jul-11 03:28N 49°17' W 123°06'0 0.0
2017-Jul-11 02:58N 49°17' W 123°06'0 0.0
2017-Jul-11 02:28N 49°17' W 123°06'0 0.0
2017-Jul-11 01:58N 49°17' W 123°06'0 0.0
2017-Jul-11 01:28N 49°17' W 123°06'0 0.0
2017-Jul-11 00:58N 49°17' W 123°06'0 0.0
2017-Jul-11 00:28N 49°17' W 123°06'0 0.0
2017-Jul-10 23:58N 49°17' W 123°06'0 0.0
2017-Jul-10 23:28N 49°17' W 123°06'0 0.0
2017-Jul-10 22:58N 49°17' W 123°06'0 0.0
2017-Jul-10 22:28N 49°17' W 123°06'0 0.0
2017-Jul-10 21:58N 49°17' W 123°06'0 0.0
2017-Jul-10 21:28N 49°17' W 123°06'0 0.0
2017-Jul-10 20:58N 49°17' W 123°06'0 0.0
2017-Jul-10 20:28N 49°17' W 123°06'0 0.0
2017-Jul-10 19:58N 49°17' W 123°06'0 0.0
2017-Jul-10 19:28N 49°17' W 123°06'0 0.0
2017-Jul-10 18:58N 49°17' W 123°06'0 0.0
2017-Jul-10 18:28N 49°17' W 123°06'0 0.0
2017-Jul-10 17:58N 49°17' W 123°06'0 0.0
2017-Jul-10 17:28N 49°17' W 123°06'0 0.0
2017-Jul-10 16:58N 49°17' W 123°06'0 0.0
2017-Jul-10 16:28N 49°17' W 123°06'0 0.0
2017-Jul-10 15:58N 49°17' W 123°06'0 0.0
2017-Jul-10 15:28N 49°17' W 123°06'0 0.0
2017-Jul-10 14:58N 49°17' W 123°06'0 0.0
2017-Jul-10 14:28N 49°17' W 123°06'0 0.0
2017-Jul-10 13:58N 49°17' W 123°06'0 0.0
2017-Jul-10 13:28N 49°17' W 123°06'0 0.0
2017-Jul-10 12:58N 49°17' W 123°06'0 0.0
2017-Jul-10 12:28N 49°17' W 123°06'0 0.0
2017-Jul-10 11:58N 49°17' W 123°06'0 0.0
2017-Jul-10 11:28N 49°17' W 123°06'0 0.0
2017-Jul-10 10:58N 49°17' W 123°06'0 0.0
2017-Jul-10 10:28N 49°17' W 123°06'0 0.0
2017-Jul-10 09:58N 49°17' W 123°06'0 0.0
2017-Jul-10 09:28N 49°17' W 123°06'0 0.0
2017-Jul-10 08:58N 49°17' W 123°06'0 0.0
2017-Jul-10 08:28N 49°17' W 123°06'0 0.0
2017-Jul-10 07:58N 49°17' W 123°06'0 0.0
2017-Jul-10 07:28N 49°17' W 123°06'0 0.0
2017-Jul-10 06:58N 49°17' W 123°06'0 0.0
2017-Jul-10 06:28N 49°17' W 123°06'0 0.0
2017-Jul-10 05:58N 49°17' W 123°06'0 0.0
2017-Jul-10 05:28N 49°17' W 123°06'0 0.0
2017-Jul-10 04:58N 49°17' W 123°06'0 0.0
2017-Jul-10 04:28N 49°17' W 123°06'0 0.0
2017-Jul-10 03:58N 49°17' W 123°06'0 0.0
2017-Jul-10 03:28N 49°17' W 123°06'0 0.0
2017-Jul-10 02:58N 49°17' W 123°06'0 0.0
2017-Jul-10 02:28N 49°17' W 123°06'0 0.0
2017-Jul-10 01:58N 49°17' W 123°06'0 0.2
2017-Jul-10 01:30N 49°17' W 123°06'1 1.8
2017-Jul-10 01:00N 49°18' W 123°05'0 0.1
2017-Jul-10 00:30N 49°18' W 123°05'0 0.1
2017-Jul-10 00:00N 49°18' W 123°05'0 0.0
2017-Jul-09 23:30N 49°18' W 123°05'0 0.0
2017-Jul-09 23:00N 49°18' W 123°05'0 0.0
2017-Jul-09 22:30N 49°18' W 123°05'0 0.0
2017-Jul-09 22:00N 49°18' W 123°05'0 0.0
2017-Jul-09 21:30N 49°18' W 123°05'0 0.0
2017-Jul-09 21:00N 49°18' W 123°05'0 0.0
2017-Jul-09 20:30N 49°18' W 123°05'0 0.0
2017-Jul-09 20:00N 49°18' W 123°05'0 0.1
2017-Jul-09 19:30N 49°18' W 123°05'0 0.1
2017-Jul-09 19:00N 49°18' W 123°05'0 0.0
2017-Jul-09 18:30N 49°18' W 123°05'0 0.0
2017-Jul-09 18:00N 49°18' W 123°05'0 0.1
2017-Jul-09 17:30N 49°18' W 123°05'0 0.0
2017-Jul-09 17:00N 49°18' W 123°05'0 0.0
2017-Jul-09 16:30N 49°18' W 123°05'0 0.0
2017-Jul-09 16:00N 49°18' W 123°05'0 0.0
2017-Jul-09 15:30N 49°18' W 123°05'0 0.0
2017-Jul-09 15:00N 49°18' W 123°05'0 0.0
2017-Jul-09 14:30N 49°18' W 123°05'0 0.0
2017-Jul-09 14:00N 49°18' W 123°05'0 0.0
2017-Jul-09 13:30N 49°18' W 123°05'0 0.0
2017-Jul-09 13:00N 49°18' W 123°05'0 0.0
2017-Jul-09 12:30N 49°18' W 123°05'1 1.7
2017-Jul-09 11:58N 49°17' W 123°06'0 0.0
2017-Jul-09 11:04N 49°17' W 123°06'0 0.0
2017-Jul-09 10:31N 49°17' W 123°06'0 0.0
2017-Jul-09 10:28N 49°17' W 123°06'0 0.0
2017-Jul-09 09:58N 49°17' W 123°06'0 0.0
2017-Jul-09 09:28N 49°17' W 123°06'0 0.0
2017-Jul-09 08:58N 49°17' W 123°06'0 0.0
2017-Jul-09 08:22N 49°17' W 123°06'0 0.0
2017-Jul-09 07:58N 49°17' W 123°06'0 0.0
2017-Jul-09 07:28N 49°17' W 123°06'0 0.0
2017-Jul-09 06:58N 49°17' W 123°06'0 0.0
2017-Jul-09 06:28N 49°17' W 123°06'0 0.0
2017-Jul-09 05:58N 49°17' W 123°06'0 0.0
2017-Jul-09 05:25N 49°17' W 123°06'0 0.0
2017-Jul-09 04:52N 49°17' W 123°06'0 0.0
2017-Jul-09 04:28N 49°17' W 123°06'0 0.0
2017-Jul-09 03:58N 49°17' W 123°06'0 0.0
2017-Jul-09 03:28N 49°17' W 123°06'0 0.0
2017-Jul-09 02:58N 49°17' W 123°06'0 0.0
2017-Jul-09 02:22N 49°17' W 123°06'  

Dump ship's entire track history